sensor_id;sensor_type;location;lat;lon;timestamp;temperature;humidity
44537;DHT22;30245;51.966;6.292;2023-05-07T00:00:36;21.80;54.50
44537;DHT22;30245;51.966;6.292;2023-05-07T00:03:02;21.80;54.50
44537;DHT22;30245;51.966;6.292;2023-05-07T00:05:28;21.80;54.50
44537;DHT22;30245;51.966;6.292;2023-05-07T00:07:53;21.80;54.50
44537;DHT22;30245;51.966;6.292;2023-05-07T00:10:19;21.80;54.50
44537;DHT22;30245;51.966;6.292;2023-05-07T00:12:45;21.80;54.50
44537;DHT22;30245;51.966;6.292;2023-05-07T00:15:11;21.80;54.30
44537;DHT22;30245;51.966;6.292;2023-05-07T00:17:37;21.90;54.30
44537;DHT22;30245;51.966;6.292;2023-05-07T00:20:03;21.90;54.20
44537;DHT22;30245;51.966;6.292;2023-05-07T00:22:30;21.90;54.20
44537;DHT22;30245;51.966;6.292;2023-05-07T00:24:56;21.90;54.10
44537;DHT22;30245;51.966;6.292;2023-05-07T00:27:22;21.90;54.10
44537;DHT22;30245;51.966;6.292;2023-05-07T00:29:48;21.90;54.10
44537;DHT22;30245;51.966;6.292;2023-05-07T00:32:13;21.90;54.00
44537;DHT22;30245;51.966;6.292;2023-05-07T00:34:39;22.00;54.00
44537;DHT22;30245;51.966;6.292;2023-05-07T00:37:05;22.00;53.90
44537;DHT22;30245;51.966;6.292;2023-05-07T00:39:33;22.00;53.80
44537;DHT22;30245;51.966;6.292;2023-05-07T00:41:58;22.00;53.70
44537;DHT22;30245;51.966;6.292;2023-05-07T00:44:24;22.00;53.60
44537;DHT22;30245;51.966;6.292;2023-05-07T00:46:50;22.00;53.50
44537;DHT22;30245;51.966;6.292;2023-05-07T00:49:16;22.00;53.50
44537;DHT22;30245;51.966;6.292;2023-05-07T00:51:42;21.90;53.50
44537;DHT22;30245;51.966;6.292;2023-05-07T00:54:08;21.90;53.50
44537;DHT22;30245;51.966;6.292;2023-05-07T00:56:34;21.90;53.50
44537;DHT22;30245;51.966;6.292;2023-05-07T00:59:01;21.90;53.50
44537;DHT22;30245;51.966;6.292;2023-05-07T01:01:28;21.90;53.50
44537;DHT22;30245;51.966;6.292;2023-05-07T01:03:53;21.90;53.50
44537;DHT22;30245;51.966;6.292;2023-05-07T01:06:20;21.90;53.50
44537;DHT22;30245;51.966;6.292;2023-05-07T01:08:46;21.90;53.50
44537;DHT22;30245;51.966;6.292;2023-05-07T01:11:13;21.90;53.40
44537;DHT22;30245;51.966;6.292;2023-05-07T01:13:39;21.80;53.50
44537;DHT22;30245;51.966;6.292;2023-05-07T01:16:06;21.80;54.10
44537;DHT22;30245;51.966;6.292;2023-05-07T01:18:32;21.70;53.50
44537;DHT22;30245;51.966;6.292;2023-05-07T01:20:58;21.70;53.60
44537;DHT22;30245;51.966;6.292;2023-05-07T01:23:25;21.70;53.70
44537;DHT22;30245;51.966;6.292;2023-05-07T01:25:53;21.70;53.60
44537;DHT22;30245;51.966;6.292;2023-05-07T01:28:19;21.70;53.50
44537;DHT22;30245;51.966;6.292;2023-05-07T01:30:48;21.70;53.50
44537;DHT22;30245;51.966;6.292;2023-05-07T01:33:19;21.70;53.50
44537;DHT22;30245;51.966;6.292;2023-05-07T01:35:50;21.70;53.50
44537;DHT22;30245;51.966;6.292;2023-05-07T01:38:17;21.70;53.50
44537;DHT22;30245;51.966;6.292;2023-05-07T01:40:43;21.70;53.50
44537;DHT22;30245;51.966;6.292;2023-05-07T01:43:09;21.70;53.50
44537;DHT22;30245;51.966;6.292;2023-05-07T01:45:36;21.70;53.50
44537;DHT22;30245;51.966;6.292;2023-05-07T01:48:02;21.70;53.60
44537;DHT22;30245;51.966;6.292;2023-05-07T01:50:28;21.50;53.60
44537;DHT22;30245;51.966;6.292;2023-05-07T01:52:55;21.50;53.80
44537;DHT22;30245;51.966;6.292;2023-05-07T01:55:21;21.50;53.90
44537;DHT22;30245;51.966;6.292;2023-05-07T01:57:47;21.50;54.00
44537;DHT22;30245;51.966;6.292;2023-05-07T02:00:12;21.50;54.00
44537;DHT22;30245;51.966;6.292;2023-05-07T02:02:38;21.40;54.00
44537;DHT22;30245;51.966;6.292;2023-05-07T02:05:04;21.40;54.10
44537;DHT22;30245;51.966;6.292;2023-05-07T02:07:30;21.40;54.20
44537;DHT22;30245;51.966;6.292;2023-05-07T02:09:55;21.30;54.30
44537;DHT22;30245;51.966;6.292;2023-05-07T02:12:22;21.30;54.40
44537;DHT22;30245;51.966;6.292;2023-05-07T02:14:47;21.30;54.60
44537;DHT22;30245;51.966;6.292;2023-05-07T02:17:13;21.30;54.60
44537;DHT22;30245;51.966;6.292;2023-05-07T02:19:39;21.30;54.60
44537;DHT22;30245;51.966;6.292;2023-05-07T02:22:04;21.30;54.70
44537;DHT22;30245;51.966;6.292;2023-05-07T02:24:30;21.30;54.70
44537;DHT22;30245;51.966;6.292;2023-05-07T02:26:55;21.30;54.80
44537;DHT22;30245;51.966;6.292;2023-05-07T02:29:21;21.20;54.80
44537;DHT22;30245;51.966;6.292;2023-05-07T02:31:47;21.20;55.10
44537;DHT22;30245;51.966;6.292;2023-05-07T02:34:18;21.20;55.20
44537;DHT22;30245;51.966;6.292;2023-05-07T02:36:44;21.10;55.30
44537;DHT22;30245;51.966;6.292;2023-05-07T02:39:10;21.10;55.30
44537;DHT22;30245;51.966;6.292;2023-05-07T02:41:36;21.00;55.30
44537;DHT22;30245;51.966;6.292;2023-05-07T02:44:01;21.00;55.50
44537;DHT22;30245;51.966;6.292;2023-05-07T02:46:27;21.00;55.60
44537;DHT22;30245;51.966;6.292;2023-05-07T02:48:53;20.90;55.80
44537;DHT22;30245;51.966;6.292;2023-05-07T02:51:21;20.90;55.90
44537;DHT22;30245;51.966;6.292;2023-05-07T02:53:47;20.80;56.00
44537;DHT22;30245;51.966;6.292;2023-05-07T02:56:12;20.80;56.00
44537;DHT22;30245;51.966;6.292;2023-05-07T02:58:38;20.80;56.20
44537;DHT22;30245;51.966;6.292;2023-05-07T03:01:08;20.80;56.30
44537;DHT22;30245;51.966;6.292;2023-05-07T03:03:34;20.70;56.40
44537;DHT22;30245;51.966;6.292;2023-05-07T03:06:00;20.70;56.50
44537;DHT22;30245;51.966;6.292;2023-05-07T03:08:26;20.70;56.60
44537;DHT22;30245;51.966;6.292;2023-05-07T03:10:51;20.70;56.70
44537;DHT22;30245;51.966;6.292;2023-05-07T03:13:17;20.70;56.80
44537;DHT22;30245;51.966;6.292;2023-05-07T03:15:42;20.70;56.80
44537;DHT22;30245;51.966;6.292;2023-05-07T03:18:08;20.60;56.90
44537;DHT22;30245;51.966;6.292;2023-05-07T03:20:34;20.60;57.00
44537;DHT22;30245;51.966;6.292;2023-05-07T03:23:00;20.60;57.10
44537;DHT22;30245;51.966;6.292;2023-05-07T03:25:25;20.60;57.20
44537;DHT22;30245;51.966;6.292;2023-05-07T03:27:51;20.60;57.20
44537;DHT22;30245;51.966;6.292;2023-05-07T03:30:16;20.60;57.20
44537;DHT22;30245;51.966;6.292;2023-05-07T03:32:42;20.60;57.30
44537;DHT22;30245;51.966;6.292;2023-05-07T03:35:08;20.60;57.20
44537;DHT22;30245;51.966;6.292;2023-05-07T03:37:33;20.70;57.30
44537;DHT22;30245;51.966;6.292;2023-05-07T03:39:59;20.60;57.20
44537;DHT22;30245;51.966;6.292;2023-05-07T03:42:25;20.60;57.40
44537;DHT22;30245;51.966;6.292;2023-05-07T03:44:50;20.60;57.40
44537;DHT22;30245;51.966;6.292;2023-05-07T03:47:16;20.60;57.50
44537;DHT22;30245;51.966;6.292;2023-05-07T03:49:41;20.60;57.60
44537;DHT22;30245;51.966;6.292;2023-05-07T03:52:07;20.60;57.60
44537;DHT22;30245;51.966;6.292;2023-05-07T03:54:32;20.60;57.70
44537;DHT22;30245;51.966;6.292;2023-05-07T03:56:58;20.60;57.70
44537;DHT22;30245;51.966;6.292;2023-05-07T03:59:23;20.50;57.70
44537;DHT22;30245;51.966;6.292;2023-05-07T04:01:49;20.50;57.80
44537;DHT22;30245;51.966;6.292;2023-05-07T04:04:15;20.50;57.80
44537;DHT22;30245;51.966;6.292;2023-05-07T04:06:41;20.50;57.90
44537;DHT22;30245;51.966;6.292;2023-05-07T04:09:07;20.50;57.90
44537;DHT22;30245;51.966;6.292;2023-05-07T04:11:32;20.50;58.00
44537;DHT22;30245;51.966;6.292;2023-05-07T04:13:58;20.50;58.10
44537;DHT22;30245;51.966;6.292;2023-05-07T04:16:24;20.50;58.10
44537;DHT22;30245;51.966;6.292;2023-05-07T04:18:49;20.50;58.20
44537;DHT22;30245;51.966;6.292;2023-05-07T04:21:20;20.50;58.20
44537;DHT22;30245;51.966;6.292;2023-05-07T04:23:46;20.40;58.30
44537;DHT22;30245;51.966;6.292;2023-05-07T04:26:12;20.40;58.40
44537;DHT22;30245;51.966;6.292;2023-05-07T04:28:38;20.40;58.50
44537;DHT22;30245;51.966;6.292;2023-05-07T04:31:04;20.40;58.50
44537;DHT22;30245;51.966;6.292;2023-05-07T04:33:30;20.40;58.60
44537;DHT22;30245;51.966;6.292;2023-05-07T04:35:56;20.40;58.60
44537;DHT22;30245;51.966;6.292;2023-05-07T04:38:22;20.40;58.60
44537;DHT22;30245;51.966;6.292;2023-05-07T04:40:49;20.40;58.60
44537;DHT22;30245;51.966;6.292;2023-05-07T04:43:14;20.40;58.70
44537;DHT22;30245;51.966;6.292;2023-05-07T04:45:41;20.40;58.70
44537;DHT22;30245;51.966;6.292;2023-05-07T04:48:08;20.40;58.80
44537;DHT22;30245;51.966;6.292;2023-05-07T04:50:34;20.40;58.90
44537;DHT22;30245;51.966;6.292;2023-05-07T04:52:59;20.40;58.90
44537;DHT22;30245;51.966;6.292;2023-05-07T04:55:25;20.40;58.90
44537;DHT22;30245;51.966;6.292;2023-05-07T04:57:51;20.40;58.90
44537;DHT22;30245;51.966;6.292;2023-05-07T05:00:17;20.40;59.10
44537;DHT22;30245;51.966;6.292;2023-05-07T05:02:45;20.40;59.70
44537;DHT22;30245;51.966;6.292;2023-05-07T05:05:10;20.40;59.20
44537;DHT22;30245;51.966;6.292;2023-05-07T05:07:36;20.40;59.20
44537;DHT22;30245;51.966;6.292;2023-05-07T05:10:02;20.40;59.20
44537;DHT22;30245;51.966;6.292;2023-05-07T05:12:29;20.40;59.20
44537;DHT22;30245;51.966;6.292;2023-05-07T05:14:55;20.40;59.30
44537;DHT22;30245;51.966;6.292;2023-05-07T05:17:21;20.40;59.30
44537;DHT22;30245;51.966;6.292;2023-05-07T05:19:46;20.40;59.30
44537;DHT22;30245;51.966;6.292;2023-05-07T05:22:12;20.40;59.30
44537;DHT22;30245;51.966;6.292;2023-05-07T05:24:37;20.40;59.30
44537;DHT22;30245;51.966;6.292;2023-05-07T05:27:03;20.50;59.30
44537;DHT22;30245;51.966;6.292;2023-05-07T05:29:29;20.50;59.40
44537;DHT22;30245;51.966;6.292;2023-05-07T05:31:56;20.50;59.30
44537;DHT22;30245;51.966;6.292;2023-05-07T05:34:22;20.60;59.30
44537;DHT22;30245;51.966;6.292;2023-05-07T05:36:48;20.60;59.20
44537;DHT22;30245;51.966;6.292;2023-05-07T05:39:13;20.70;59.30
44537;DHT22;30245;51.966;6.292;2023-05-07T05:41:40;20.70;59.20
44537;DHT22;30245;51.966;6.292;2023-05-07T05:44:05;20.80;59.10
44537;DHT22;30245;51.966;6.292;2023-05-07T05:46:31;20.80;59.00
44537;DHT22;30245;51.966;6.292;2023-05-07T05:48:56;20.70;59.10
44537;DHT22;30245;51.966;6.292;2023-05-07T05:51:22;20.70;59.20
44537;DHT22;30245;51.966;6.292;2023-05-07T05:53:48;20.70;59.30
44537;DHT22;30245;51.966;6.292;2023-05-07T05:56:14;20.70;59.30
44537;DHT22;30245;51.966;6.292;2023-05-07T05:58:40;20.70;59.30
44537;DHT22;30245;51.966;6.292;2023-05-07T06:01:06;20.80;59.30
44537;DHT22;30245;51.966;6.292;2023-05-07T06:03:32;20.80;59.30
44537;DHT22;30245;51.966;6.292;2023-05-07T06:05:58;20.80;59.30
44537;DHT22;30245;51.966;6.292;2023-05-07T06:08:23;20.80;59.30
44537;DHT22;30245;51.966;6.292;2023-05-07T06:10:49;20.80;59.40
44537;DHT22;30245;51.966;6.292;2023-05-07T06:13:15;20.90;59.40
44537;DHT22;30245;51.966;6.292;2023-05-07T06:15:40;20.90;59.50
44537;DHT22;30245;51.966;6.292;2023-05-07T06:18:06;20.80;59.50
44537;DHT22;30245;51.966;6.292;2023-05-07T06:20:32;20.90;59.60
44537;DHT22;30245;51.966;6.292;2023-05-07T06:22:57;21.00;59.40
44537;DHT22;30245;51.966;6.292;2023-05-07T06:25:23;21.10;59.30
44537;DHT22;30245;51.966;6.292;2023-05-07T06:27:48;21.00;59.20
44537;DHT22;30245;51.966;6.292;2023-05-07T06:30:14;21.00;59.20
44537;DHT22;30245;51.966;6.292;2023-05-07T06:32:41;21.00;59.30
44537;DHT22;30245;51.966;6.292;2023-05-07T06:35:06;21.00;59.30
44537;DHT22;30245;51.966;6.292;2023-05-07T06:37:32;21.00;59.40
44537;DHT22;30245;51.966;6.292;2023-05-07T06:39:58;20.90;59.50
44537;DHT22;30245;51.966;6.292;2023-05-07T06:42:23;20.90;59.50
44537;DHT22;30245;51.966;6.292;2023-05-07T06:44:49;21.00;59.50
44537;DHT22;30245;51.966;6.292;2023-05-07T06:47:14;21.00;59.40
44537;DHT22;30245;51.966;6.292;2023-05-07T06:49:40;21.00;59.40
44537;DHT22;30245;51.966;6.292;2023-05-07T06:52:05;20.90;60.00
44537;DHT22;30245;51.966;6.292;2023-05-07T06:54:31;21.00;59.40
44537;DHT22;30245;51.966;6.292;2023-05-07T06:56:56;20.90;59.40
44537;DHT22;30245;51.966;6.292;2023-05-07T06:59:23;21.00;59.30
44537;DHT22;30245;51.966;6.292;2023-05-07T07:01:49;21.00;59.30
44537;DHT22;30245;51.966;6.292;2023-05-07T07:04:14;21.00;59.30
44537;DHT22;30245;51.966;6.292;2023-05-07T07:06:40;21.10;59.30
44537;DHT22;30245;51.966;6.292;2023-05-07T07:09:05;21.10;59.10
44537;DHT22;30245;51.966;6.292;2023-05-07T07:11:31;21.20;59.10
44537;DHT22;30245;51.966;6.292;2023-05-07T07:13:56;21.10;58.90
44537;DHT22;30245;51.966;6.292;2023-05-07T07:16:22;21.10;58.90
44537;DHT22;30245;51.966;6.292;2023-05-07T07:18:48;21.20;58.90
44537;DHT22;30245;51.966;6.292;2023-05-07T07:21:13;21.20;58.90
44537;DHT22;30245;51.966;6.292;2023-05-07T07:23:39;21.30;58.90
44537;DHT22;30245;51.966;6.292;2023-05-07T07:26:05;21.40;58.80
44537;DHT22;30245;51.966;6.292;2023-05-07T07:28:32;21.50;58.60
44537;DHT22;30245;51.966;6.292;2023-05-07T07:30:57;21.50;58.40
44537;DHT22;30245;51.966;6.292;2023-05-07T07:33:23;21.60;58.30
44537;DHT22;30245;51.966;6.292;2023-05-07T07:35:48;21.60;58.20
44537;DHT22;30245;51.966;6.292;2023-05-07T07:38:14;21.60;58.20
44537;DHT22;30245;51.966;6.292;2023-05-07T07:40:39;21.70;58.20
44537;DHT22;30245;51.966;6.292;2023-05-07T07:43:05;21.70;58.70
44537;DHT22;30245;51.966;6.292;2023-05-07T07:45:31;21.80;58.00
44537;DHT22;30245;51.966;6.292;2023-05-07T07:47:57;21.90;57.90
44537;DHT22;30245;51.966;6.292;2023-05-07T07:50:22;21.90;57.90
44537;DHT22;30245;51.966;6.292;2023-05-07T07:52:48;21.90;57.80
44537;DHT22;30245;51.966;6.292;2023-05-07T07:55:14;21.90;57.70
44537;DHT22;30245;51.966;6.292;2023-05-07T07:57:43;21.90;57.80
44537;DHT22;30245;51.966;6.292;2023-05-07T08:00:09;21.90;57.80
44537;DHT22;30245;51.966;6.292;2023-05-07T08:02:34;22.00;57.70
44537;DHT22;30245;51.966;6.292;2023-05-07T08:05:00;22.00;57.60
44537;DHT22;30245;51.966;6.292;2023-05-07T08:07:26;22.10;57.60
44537;DHT22;30245;51.966;6.292;2023-05-07T08:09:51;22.10;57.50
44537;DHT22;30245;51.966;6.292;2023-05-07T08:12:17;22.20;57.40
44537;DHT22;30245;51.966;6.292;2023-05-07T08:14:42;22.30;57.30
44537;DHT22;30245;51.966;6.292;2023-05-07T08:17:08;22.40;57.20
44537;DHT22;30245;51.966;6.292;2023-05-07T08:19:35;22.40;57.00
44537;DHT22;30245;51.966;6.292;2023-05-07T08:22:02;22.50;57.00
44537;DHT22;30245;51.966;6.292;2023-05-07T08:24:28;22.50;56.90
44537;DHT22;30245;51.966;6.292;2023-05-07T08:26:53;22.60;56.70
44537;DHT22;30245;51.966;6.292;2023-05-07T08:29:19;22.70;56.60
44537;DHT22;30245;51.966;6.292;2023-05-07T08:31:45;22.80;56.50
44537;DHT22;30245;51.966;6.292;2023-05-07T08:34:10;22.80;56.30
44537;DHT22;30245;51.966;6.292;2023-05-07T08:36:36;22.90;56.20
44537;DHT22;30245;51.966;6.292;2023-05-07T08:39:01;23.00;56.10
44537;DHT22;30245;51.966;6.292;2023-05-07T08:41:27;23.10;55.90
44537;DHT22;30245;51.966;6.292;2023-05-07T08:43:55;23.20;55.80
44537;DHT22;30245;51.966;6.292;2023-05-07T08:46:22;23.20;55.60
44537;DHT22;30245;51.966;6.292;2023-05-07T08:48:48;23.20;55.60
44537;DHT22;30245;51.966;6.292;2023-05-07T08:51:17;23.30;55.50
44537;DHT22;30245;51.966;6.292;2023-05-07T08:53:45;23.40;55.20
44537;DHT22;30245;51.966;6.292;2023-05-07T08:56:11;23.50;55.10
44537;DHT22;30245;51.966;6.292;2023-05-07T08:58:37;23.60;55.10
44537;DHT22;30245;51.966;6.292;2023-05-07T09:01:16;23.70;54.90
44537;DHT22;30245;51.966;6.292;2023-05-07T09:03:44;23.90;54.60
44537;DHT22;30245;51.966;6.292;2023-05-07T09:06:10;24.00;54.30
44537;DHT22;30245;51.966;6.292;2023-05-07T09:08:36;24.10;54.10
44537;DHT22;30245;51.966;6.292;2023-05-07T09:11:02;24.20;53.90
44537;DHT22;30245;51.966;6.292;2023-05-07T09:13:28;24.30;53.80
44537;DHT22;30245;51.966;6.292;2023-05-07T09:15:54;24.50;53.70
44537;DHT22;30245;51.966;6.292;2023-05-07T09:18:19;24.70;53.30
44537;DHT22;30245;51.966;6.292;2023-05-07T09:20:45;24.90;52.90
44537;DHT22;30245;51.966;6.292;2023-05-07T09:23:10;25.20;52.60
44537;DHT22;30245;51.966;6.292;2023-05-07T09:25:36;25.30;52.30
44537;DHT22;30245;51.966;6.292;2023-05-07T09:28:03;25.50;51.90
44537;DHT22;30245;51.966;6.292;2023-05-07T09:30:30;25.50;51.70
44537;DHT22;30245;51.966;6.292;2023-05-07T09:33:00;25.70;51.70
44537;DHT22;30245;51.966;6.292;2023-05-07T09:35:26;25.80;51.30
44537;DHT22;30245;51.966;6.292;2023-05-07T09:37:57;25.90;51.20
44537;DHT22;30245;51.966;6.292;2023-05-07T09:40:27;25.90;50.20
44537;DHT22;30245;51.966;6.292;2023-05-07T09:42:53;26.00;50.10
44537;DHT22;30245;51.966;6.292;2023-05-07T09:45:24;26.00;49.90
44537;DHT22;30245;51.966;6.292;2023-05-07T09:47:54;26.10;49.90
44537;DHT22;30245;51.966;6.292;2023-05-07T09:50:26;26.20;49.60
44537;DHT22;30245;51.966;6.292;2023-05-07T09:52:52;26.30;49.40
44537;DHT22;30245;51.966;6.292;2023-05-07T09:55:18;26.40;49.20
44537;DHT22;30245;51.966;6.292;2023-05-07T09:57:45;26.60;48.80
44537;DHT22;30245;51.966;6.292;2023-05-07T10:00:12;26.70;48.40
44537;DHT22;30245;51.966;6.292;2023-05-07T10:02:39;26.80;48.30
44537;DHT22;30245;51.966;6.292;2023-05-07T10:05:12;26.90;47.90
44537;DHT22;30245;51.966;6.292;2023-05-07T10:07:38;27.10;48.00
44537;DHT22;30245;51.966;6.292;2023-05-07T10:10:05;27.30;47.40
44537;DHT22;30245;51.966;6.292;2023-05-07T10:12:31;27.50;47.20
44537;DHT22;30245;51.966;6.292;2023-05-07T10:15:07;27.70;46.90
44537;DHT22;30245;51.966;6.292;2023-05-07T10:17:35;27.80;46.20
44537;DHT22;30245;51.966;6.292;2023-05-07T10:20:01;27.80;46.00
44537;DHT22;30245;51.966;6.292;2023-05-07T10:22:27;27.90;46.20
44537;DHT22;30245;51.966;6.292;2023-05-07T10:24:56;28.10;46.10
44537;DHT22;30245;51.966;6.292;2023-05-07T10:27:25;28.20;45.90
44537;DHT22;30245;51.966;6.292;2023-05-07T10:30:15;28.30;45.60
44537;DHT22;30245;51.966;6.292;2023-05-07T10:32:49;28.40;45.60
44537;DHT22;30245;51.966;6.292;2023-05-07T10:35:20;28.50;45.50
44537;DHT22;30245;51.966;6.292;2023-05-07T10:37:48;28.70;45.20
44537;DHT22;30245;51.966;6.292;2023-05-07T10:40:14;28.90;44.90
44537;DHT22;30245;51.966;6.292;2023-05-07T10:42:53;29.00;44.70
44537;DHT22;30245;51.966;6.292;2023-05-07T10:45:20;29.10;44.60
44537;DHT22;30245;51.966;6.292;2023-05-07T10:48:13;29.40;44.60
44537;DHT22;30245;51.966;6.292;2023-05-07T10:50:41;29.60;44.10
44537;DHT22;30245;51.966;6.292;2023-05-07T10:58:23;29.90;43.90
44537;DHT22;30245;51.966;6.292;2023-05-07T11:00:50;29.90;43.30
44537;DHT22;30245;51.966;6.292;2023-05-07T11:03:16;30.10;43.10
44537;DHT22;30245;51.966;6.292;2023-05-07T11:05:42;30.10;42.50
44537;DHT22;30245;51.966;6.292;2023-05-07T11:08:09;30.20;42.30
44537;DHT22;30245;51.966;6.292;2023-05-07T11:10:59;30.20;41.70
44537;DHT22;30245;51.966;6.292;2023-05-07T11:13:44;30.10;41.40
44537;DHT22;30245;51.966;6.292;2023-05-07T11:16:23;30.00;41.30
44537;DHT22;30245;51.966;6.292;2023-05-07T11:18:56;30.10;41.10
44537;DHT22;30245;51.966;6.292;2023-05-07T11:21:38;30.20;41.00
44537;DHT22;30245;51.966;6.292;2023-05-07T11:24:08;30.40;41.00
44537;DHT22;30245;51.966;6.292;2023-05-07T11:26:50;30.40;40.90
44537;DHT22;30245;51.966;6.292;2023-05-07T11:29:20;30.50;40.90
44537;DHT22;30245;51.966;6.292;2023-05-07T11:31:51;30.50;41.20
44537;DHT22;30245;51.966;6.292;2023-05-07T11:34:22;30.50;41.10
44537;DHT22;30245;51.966;6.292;2023-05-07T11:36:49;30.50;40.70
44537;DHT22;30245;51.966;6.292;2023-05-07T11:41:54;30.60;39.90
44537;DHT22;30245;51.966;6.292;2023-05-07T11:44:20;30.50;39.80
44537;DHT22;30245;51.966;6.292;2023-05-07T11:46:45;30.30;39.90
44537;DHT22;30245;51.966;6.292;2023-05-07T11:49:11;30.10;40.30
44537;DHT22;30245;51.966;6.292;2023-05-07T11:51:37;30.00;40.10
44537;DHT22;30245;51.966;6.292;2023-05-07T11:54:04;29.90;40.00
44537;DHT22;30245;51.966;6.292;2023-05-07T11:56:34;29.90;40.20
44537;DHT22;30245;51.966;6.292;2023-05-07T11:59:01;29.90;40.20
44537;DHT22;30245;51.966;6.292;2023-05-07T12:01:26;29.90;40.40
44537;DHT22;30245;51.966;6.292;2023-05-07T12:03:52;29.90;40.50
44537;DHT22;30245;51.966;6.292;2023-05-07T12:06:20;30.10;40.50
44537;DHT22;30245;51.966;6.292;2023-05-07T12:08:46;30.30;40.30
44537;DHT22;30245;51.966;6.292;2023-05-07T12:11:18;30.30;40.10
44537;DHT22;30245;51.966;6.292;2023-05-07T12:13:46;30.30;40.60
44537;DHT22;30245;51.966;6.292;2023-05-07T12:16:12;30.40;40.00
44537;DHT22;30245;51.966;6.292;2023-05-07T12:18:38;30.40;39.80
44537;DHT22;30245;51.966;6.292;2023-05-07T12:21:05;30.40;39.80
44537;DHT22;30245;51.966;6.292;2023-05-07T12:23:32;30.50;39.70
44537;DHT22;30245;51.966;6.292;2023-05-07T12:25:59;30.60;39.60
44537;DHT22;30245;51.966;6.292;2023-05-07T12:28:25;30.60;39.50
44537;DHT22;30245;51.966;6.292;2023-05-07T12:30:51;30.50;39.50
44537;DHT22;30245;51.966;6.292;2023-05-07T12:33:19;30.50;39.60
44537;DHT22;30245;51.966;6.292;2023-05-07T12:35:47;30.50;39.60
44537;DHT22;30245;51.966;6.292;2023-05-07T12:38:14;30.50;40.20
44537;DHT22;30245;51.966;6.292;2023-05-07T12:40:54;30.50;39.60
44537;DHT22;30245;51.966;6.292;2023-05-07T12:43:21;30.50;39.60
44537;DHT22;30245;51.966;6.292;2023-05-07T12:45:49;30.60;39.60
44537;DHT22;30245;51.966;6.292;2023-05-07T12:48:15;30.60;39.50
44537;DHT22;30245;51.966;6.292;2023-05-07T12:50:41;30.70;39.80
44537;DHT22;30245;51.966;6.292;2023-05-07T12:53:07;30.70;39.50
44537;DHT22;30245;51.966;6.292;2023-05-07T12:55:41;30.60;39.50
44537;DHT22;30245;51.966;6.292;2023-05-07T12:58:08;30.50;39.50
44537;DHT22;30245;51.966;6.292;2023-05-07T13:00:35;30.40;39.40
44537;DHT22;30245;51.966;6.292;2023-05-07T13:03:01;30.40;39.50
44537;DHT22;30245;51.966;6.292;2023-05-07T13:05:26;30.40;39.40
44537;DHT22;30245;51.966;6.292;2023-05-07T13:07:53;30.30;39.30
44537;DHT22;30245;51.966;6.292;2023-05-07T13:10:19;30.30;39.40
44537;DHT22;30245;51.966;6.292;2023-05-07T13:12:45;30.30;39.60
44537;DHT22;30245;51.966;6.292;2023-05-07T13:15:10;30.20;39.50
44537;DHT22;30245;51.966;6.292;2023-05-07T13:17:36;30.10;39.50
44537;DHT22;30245;51.966;6.292;2023-05-07T13:20:01;29.90;39.60
44537;DHT22;30245;51.966;6.292;2023-05-07T13:22:28;29.80;39.80
44537;DHT22;30245;51.966;6.292;2023-05-07T13:24:53;29.70;40.00
44537;DHT22;30245;51.966;6.292;2023-05-07T13:27:20;29.60;40.00
44537;DHT22;30245;51.966;6.292;2023-05-07T13:29:46;29.40;40.20
44537;DHT22;30245;51.966;6.292;2023-05-07T13:32:11;29.30;40.30
44537;DHT22;30245;51.966;6.292;2023-05-07T13:34:37;29.20;40.60
44537;DHT22;30245;51.966;6.292;2023-05-07T13:37:02;29.10;40.60
44537;DHT22;30245;51.966;6.292;2023-05-07T13:39:28;29.00;40.60
44537;DHT22;30245;51.966;6.292;2023-05-07T13:41:54;28.90;40.70
44537;DHT22;30245;51.966;6.292;2023-05-07T13:44:19;28.80;40.70
44537;DHT22;30245;51.966;6.292;2023-05-07T13:46:46;28.70;40.60
44537;DHT22;30245;51.966;6.292;2023-05-07T13:49:11;28.60;40.80
44537;DHT22;30245;51.966;6.292;2023-05-07T13:51:38;28.50;41.00
44537;DHT22;30245;51.966;6.292;2023-05-07T13:54:03;28.40;41.10
44537;DHT22;30245;51.966;6.292;2023-05-07T13:56:29;28.30;41.30
44537;DHT22;30245;51.966;6.292;2023-05-07T13:58:57;28.20;41.50
44537;DHT22;30245;51.966;6.292;2023-05-07T14:01:23;28.20;41.70
44537;DHT22;30245;51.966;6.292;2023-05-07T14:03:49;28.00;41.70
44537;DHT22;30245;51.966;6.292;2023-05-07T14:06:14;28.00;41.90
44537;DHT22;30245;51.966;6.292;2023-05-07T14:08:40;27.90;42.00
44537;DHT22;30245;51.966;6.292;2023-05-07T14:11:06;27.90;42.10
44537;DHT22;30245;51.966;6.292;2023-05-07T14:13:31;27.90;42.20
44537;DHT22;30245;51.966;6.292;2023-05-07T14:15:57;27.90;42.20
44537;DHT22;30245;51.966;6.292;2023-05-07T14:18:23;27.80;42.10
44537;DHT22;30245;51.966;6.292;2023-05-07T14:20:49;27.80;42.10
44537;DHT22;30245;51.966;6.292;2023-05-07T14:23:14;27.70;42.10
44537;DHT22;30245;51.966;6.292;2023-05-07T14:25:40;27.60;42.30
44537;DHT22;30245;51.966;6.292;2023-05-07T14:28:06;27.60;42.30
44537;DHT22;30245;51.966;6.292;2023-05-07T14:30:32;27.60;42.40
44537;DHT22;30245;51.966;6.292;2023-05-07T14:32:57;27.50;42.40
44537;DHT22;30245;51.966;6.292;2023-05-07T14:35:23;27.50;42.50
44537;DHT22;30245;51.966;6.292;2023-05-07T14:37:48;27.50;42.70
44537;DHT22;30245;51.966;6.292;2023-05-07T14:40:14;27.40;42.70
44537;DHT22;30245;51.966;6.292;2023-05-07T14:42:40;27.30;42.80
44537;DHT22;30245;51.966;6.292;2023-05-07T14:45:06;27.30;42.90
44537;DHT22;30245;51.966;6.292;2023-05-07T14:47:32;27.30;43.70
44537;DHT22;30245;51.966;6.292;2023-05-07T14:49:57;27.30;43.10
44537;DHT22;30245;51.966;6.292;2023-05-07T14:52:23;27.30;43.30
44537;DHT22;30245;51.966;6.292;2023-05-07T14:54:49;27.30;43.30
44537;DHT22;30245;51.966;6.292;2023-05-07T14:57:15;27.20;43.40
44537;DHT22;30245;51.966;6.292;2023-05-07T14:59:44;27.30;43.60
44537;DHT22;30245;51.966;6.292;2023-05-07T15:02:11;27.20;43.60
44537;DHT22;30245;51.966;6.292;2023-05-07T15:04:37;27.30;43.80
44537;DHT22;30245;51.966;6.292;2023-05-07T15:07:05;27.30;43.70
44537;DHT22;30245;51.966;6.292;2023-05-07T15:09:30;27.30;43.70
44537;DHT22;30245;51.966;6.292;2023-05-07T15:11:56;27.30;43.70
44537;DHT22;30245;51.966;6.292;2023-05-07T15:14:21;27.20;43.80
44537;DHT22;30245;51.966;6.292;2023-05-07T15:16:48;27.20;43.90
44537;DHT22;30245;51.966;6.292;2023-05-07T15:19:13;27.30;44.00
44537;DHT22;30245;51.966;6.292;2023-05-07T15:21:41;27.20;43.70
44537;DHT22;30245;51.966;6.292;2023-05-07T15:24:07;26.90;43.80
44537;DHT22;30245;51.966;6.292;2023-05-07T15:26:32;26.80;44.00
44537;DHT22;30245;51.966;6.292;2023-05-07T15:28:58;26.60;44.20
44537;DHT22;30245;51.966;6.292;2023-05-07T15:31:24;26.50;44.70
44537;DHT22;30245;51.966;6.292;2023-05-07T15:33:50;26.30;44.80